sensor_id;sensor_type;location;lat;lon;timestamp;P1;durP1;ratioP1;P2;durP2;ratioP2
61978;SDS011;47938;48.176;16.414;2022-09-12T00:00:37;8.32;;;2.70;;
61978;SDS011;47938;48.176;16.414;2022-09-12T00:03:03;3.75;;;2.60;;
61978;SDS011;47938;48.176;16.414;2022-09-12T00:05:29;4.68;;;3.03;;
61978;SDS011;47938;48.176;16.414;2022-09-12T00:07:54;3.90;;;2.97;;
61978;SDS011;47938;48.176;16.414;2022-09-12T00:10:20;4.38;;;2.88;;
61978;SDS011;47938;48.176;16.414;2022-09-12T00:12:46;5.53;;;3.10;;
61978;SDS011;47938;48.176;16.414;2022-09-12T00:15:12;4.63;;;2.63;;
61978;SDS011;47938;48.176;16.414;2022-09-12T00:17:38;10.10;;;3.85;;
61978;SDS011;47938;48.176;16.414;2022-09-12T00:20:04;4.03;;;2.90;;
61978;SDS011;47938;48.176;16.414;2022-09-12T00:22:32;5.15;;;2.80;;
61978;SDS011;47938;48.176;16.414;2022-09-12T00:24:58;4.45;;;2.90;;
61978;SDS011;47938;48.176;16.414;2022-09-12T00:27:23;4.72;;;2.63;;
61978;SDS011;47938;48.176;16.414;2022-09-12T00:29:49;5.57;;;2.88;;
61978;SDS011;47938;48.176;16.414;2022-09-12T00:32:14;7.63;;;2.60;;
61978;SDS011;47938;48.176;16.414;2022-09-12T00:34:40;5.22;;;3.00;;
61978;SDS011;47938;48.176;16.414;2022-09-12T00:37:06;5.07;;;2.50;;
61978;SDS011;47938;48.176;16.414;2022-09-12T00:39:31;4.32;;;2.72;;
61978;SDS011;47938;48.176;16.414;2022-09-12T00:41:57;4.70;;;2.75;;
61978;SDS011;47938;48.176;16.414;2022-09-12T00:46:52;4.53;;;2.40;;
61978;SDS011;47938;48.176;16.414;2022-09-12T00:52:34;4.55;;;2.60;;
61978;SDS011;47938;48.176;16.414;2022-09-12T00:55:27;3.50;;;2.40;;
61978;SDS011;47938;48.176;16.414;2022-09-12T01:00:28;4.13;;;2.53;;
61978;SDS011;47938;48.176;16.414;2022-09-12T01:03:06;3.90;;;2.53;;
61978;SDS011;47938;48.176;16.414;2022-09-12T01:05:36;5.32;;;2.97;;
61978;SDS011;47938;48.176;16.414;2022-09-12T01:08:05;3.58;;;2.70;;
61978;SDS011;47938;48.176;16.414;2022-09-12T01:10:31;6.68;;;2.95;;
61978;SDS011;47938;48.176;16.414;2022-09-12T01:12:59;7.80;;;2.75;;
61978;SDS011;47938;48.176;16.414;2022-09-12T01:15:25;6.63;;;2.60;;
61978;SDS011;47938;48.176;16.414;2022-09-12T01:32:32;4.32;;;3.30;;
61978;SDS011;47938;48.176;16.414;2022-09-12T01:37:53;4.72;;;3.33;;
61978;SDS011;47938;48.176;16.414;2022-09-12T01:43:21;5.32;;;3.42;;
61978;SDS011;47938;48.176;16.414;2022-09-12T01:48:54;6.78;;;3.55;;
61978;SDS011;47938;48.176;16.414;2022-09-12T01:51:35;6.50;;;3.63;;
61978;SDS011;47938;48.176;16.414;2022-09-12T01:54:10;4.70;;;3.60;;
61978;SDS011;47938;48.176;16.414;2022-09-12T01:56:40;4.18;;;3.40;;
61978;SDS011;47938;48.176;16.414;2022-09-12T01:59:20;4.60;;;3.50;;
61978;SDS011;47938;48.176;16.414;2022-09-12T02:01:52;4.07;;;3.22;;
61978;SDS011;47938;48.176;16.414;2022-09-12T02:04:27;6.43;;;3.70;;
61978;SDS011;47938;48.176;16.414;2022-09-12T02:06:59;5.60;;;3.67;;
61978;SDS011;47938;48.176;16.414;2022-09-12T02:09:33;6.38;;;3.70;;
61978;SDS011;47938;48.176;16.414;2022-09-12T02:12:03;6.85;;;3.78;;
61978;SDS011;47938;48.176;16.414;2022-09-12T02:14:35;6.25;;;3.40;;
61978;SDS011;47938;48.176;16.414;2022-09-12T02:17:05;6.05;;;3.83;;
61978;SDS011;47938;48.176;16.414;2022-09-12T02:19:36;4.70;;;3.28;;
61978;SDS011;47938;48.176;16.414;2022-09-12T02:22:06;5.43;;;3.60;;
61978;SDS011;47938;48.176;16.414;2022-09-12T02:24:37;6.72;;;3.70;;
61978;SDS011;47938;48.176;16.414;2022-09-12T02:27:08;5.23;;;3.33;;
61978;SDS011;47938;48.176;16.414;2022-09-12T02:29:39;4.72;;;3.45;;
61978;SDS011;47938;48.176;16.414;2022-09-12T02:32:06;5.53;;;3.60;;
61978;SDS011;47938;48.176;16.414;2022-09-12T02:37:18;4.07;;;3.45;;
61978;SDS011;47938;48.176;16.414;2022-09-12T02:39:48;6.47;;;3.90;;
61978;SDS011;47938;48.176;16.414;2022-09-12T02:42:14;5.32;;;3.88;;
61978;SDS011;47938;48.176;16.414;2022-09-12T02:44:40;4.85;;;3.50;;
61978;SDS011;47938;48.176;16.414;2022-09-12T02:47:40;7.80;;;4.22;;
61978;SDS011;47938;48.176;16.414;2022-09-12T02:50:00;5.90;;;3.80;;
61978;SDS011;47938;48.176;16.414;2022-09-12T02:52:27;4.13;;;3.60;;
61978;SDS011;47938;48.176;16.414;2022-09-12T02:54:53;4.70;;;4.13;;
61978;SDS011;47938;48.176;16.414;2022-09-12T02:57:21;5.18;;;4.25;;
61978;SDS011;47938;48.176;16.414;2022-09-12T02:59:47;6.20;;;4.63;;
61978;SDS011;47938;48.176;16.414;2022-09-12T03:02:22;5.43;;;4.13;;
61978;SDS011;47938;48.176;16.414;2022-09-12T03:04:57;11.45;;;4.53;;
61978;SDS011;47938;48.176;16.414;2022-09-12T03:10:50;5.43;;;4.88;;
61978;SDS011;47938;48.176;16.414;2022-09-12T03:13:43;6.07;;;5.47;;
61978;SDS011;47938;48.176;16.414;2022-09-12T03:22:14;7.38;;;5.10;;
61978;SDS011;47938;48.176;16.414;2022-09-12T03:27:33;8.57;;;5.45;;
61978;SDS011;47938;48.176;16.414;2022-09-12T03:30:03;6.53;;;4.75;;
61978;SDS011;47938;48.176;16.414;2022-09-12T03:35:24;11.88;;;5.80;;
61978;SDS011;47938;48.176;16.414;2022-09-12T03:37:50;8.35;;;5.38;;
61978;SDS011;47938;48.176;16.414;2022-09-12T03:40:16;7.72;;;5.93;;
61978;SDS011;47938;48.176;16.414;2022-09-12T03:42:42;6.03;;;5.28;;
61978;SDS011;47938;48.176;16.414;2022-09-12T03:45:08;7.60;;;5.78;;
61978;SDS011;47938;48.176;16.414;2022-09-12T03:47:34;9.18;;;6.50;;
61978;SDS011;47938;48.176;16.414;2022-09-12T03:50:00;6.50;;;5.63;;
61978;SDS011;47938;48.176;16.414;2022-09-12T03:52:26;6.45;;;5.80;;
61978;SDS011;47938;48.176;16.414;2022-09-12T03:54:52;7.85;;;6.15;;
61978;SDS011;47938;48.176;16.414;2022-09-12T03:57:17;11.93;;;5.88;;
61978;SDS011;47938;48.176;16.414;2022-09-12T03:59:43;14.57;;;5.93;;
61978;SDS011;47938;48.176;16.414;2022-09-12T04:02:09;10.60;;;6.28;;
61978;SDS011;47938;48.176;16.414;2022-09-12T04:04:35;8.20;;;6.40;;
61978;SDS011;47938;48.176;16.414;2022-09-12T04:07:00;7.10;;;6.40;;
61978;SDS011;47938;48.176;16.414;2022-09-12T04:09:26;9.75;;;6.50;;
61978;SDS011;47938;48.176;16.414;2022-09-12T04:11:51;9.05;;;6.68;;
61978;SDS011;47938;48.176;16.414;2022-09-12T04:14:17;7.22;;;6.03;;
61978;SDS011;47938;48.176;16.414;2022-09-12T04:16:42;8.85;;;7.60;;
61978;SDS011;47938;48.176;16.414;2022-09-12T04:19:09;12.55;;;6.07;;
61978;SDS011;47938;48.176;16.414;2022-09-12T04:21:36;7.10;;;5.85;;
61978;SDS011;47938;48.176;16.414;2022-09-12T04:24:01;8.68;;;5.90;;
61978;SDS011;47938;48.176;16.414;2022-09-12T04:26:27;12.02;;;6.28;;
61978;SDS011;47938;48.176;16.414;2022-09-12T04:28:53;9.98;;;6.93;;
61978;SDS011;47938;48.176;16.414;2022-09-12T04:31:18;7.50;;;6.32;;
61978;SDS011;47938;48.176;16.414;2022-09-12T04:33:44;12.77;;;6.30;;
61978;SDS011;47938;48.176;16.414;2022-09-12T04:36:11;13.20;;;6.90;;
61978;SDS011;47938;48.176;16.414;2022-09-12T04:38:38;9.20;;;6.00;;
61978;SDS011;47938;48.176;16.414;2022-09-12T04:41:11;10.55;;;5.90;;
61978;SDS011;47938;48.176;16.414;2022-09-12T04:43:41;8.32;;;6.00;;
61978;SDS011;47938;48.176;16.414;2022-09-12T04:46:09;10.80;;;5.95;;
61978;SDS011;47938;48.176;16.414;2022-09-12T04:48:36;8.27;;;5.30;;
61978;SDS011;47938;48.176;16.414;2022-09-12T04:51:09;11.73;;;5.63;;
61978;SDS011;47938;48.176;16.414;2022-09-12T04:53:36;9.73;;;5.10;;
61978;SDS011;47938;48.176;16.414;2022-09-12T04:56:03;10.00;;;5.13;;
61978;SDS011;47938;48.176;16.414;2022-09-12T04:58:30;8.23;;;4.60;;
61978;SDS011;47938;48.176;16.414;2022-09-12T05:01:02;5.97;;;5.00;;
61978;SDS011;47938;48.176;16.414;2022-09-12T05:03:29;6.15;;;4.53;;
61978;SDS011;47938;48.176;16.414;2022-09-12T05:05:54;6.80;;;5.18;;
61978;SDS011;47938;48.176;16.414;2022-09-12T05:08:20;6.30;;;4.50;;
61978;SDS011;47938;48.176;16.414;2022-09-12T05:10:45;7.82;;;4.50;;
61978;SDS011;47938;48.176;16.414;2022-09-12T05:13:11;8.50;;;4.78;;
61978;SDS011;47938;48.176;16.414;2022-09-12T05:15:37;6.60;;;4.10;;
61978;SDS011;47938;48.176;16.414;2022-09-12T05:18:02;7.28;;;4.40;;
61978;SDS011;47938;48.176;16.414;2022-09-12T05:20:28;9.40;;;4.30;;
61978;SDS011;47938;48.176;16.414;2022-09-12T05:22:53;6.57;;;4.47;;
61978;SDS011;47938;48.176;16.414;2022-09-12T05:25:19;5.22;;;3.85;;
61978;SDS011;47938;48.176;16.414;2022-09-12T05:27:45;6.50;;;3.63;;
61978;SDS011;47938;48.176;16.414;2022-09-12T05:30:10;6.18;;;4.30;;
61978;SDS011;47938;48.176;16.414;2022-09-12T05:32:36;7.93;;;4.20;;
61978;SDS011;47938;48.176;16.414;2022-09-12T05:35:01;7.93;;;4.40;;
61978;SDS011;47938;48.176;16.414;2022-09-12T05:37:27;6.20;;;4.00;;
61978;SDS011;47938;48.176;16.414;2022-09-12T05:39:53;6.35;;;3.78;;
61978;SDS011;47938;48.176;16.414;2022-09-12T05:42:18;7.03;;;3.85;;
61978;SDS011;47938;48.176;16.414;2022-09-12T05:44:44;6.65;;;3.38;;
61978;SDS011;47938;48.176;16.414;2022-09-12T05:47:10;8.63;;;3.60;;
61978;SDS011;47938;48.176;16.414;2022-09-12T05:49:36;8.27;;;3.47;;
61978;SDS011;47938;48.176;16.414;2022-09-12T05:52:01;6.05;;;3.05;;
61978;SDS011;47938;48.176;16.414;2022-09-12T05:54:27;5.30;;;2.88;;
61978;SDS011;47938;48.176;16.414;2022-09-12T05:56:52;7.63;;;3.83;;
61978;SDS011;47938;48.176;16.414;2022-09-12T05:59:19;7.93;;;3.47;;
61978;SDS011;47938;48.176;16.414;2022-09-12T06:01:45;8.10;;;3.38;;
61978;SDS011;47938;48.176;16.414;2022-09-12T06:04:12;3.97;;;2.97;;
61978;SDS011;47938;48.176;16.414;2022-09-12T06:06:38;9.02;;;3.38;;
61978;SDS011;47938;48.176;16.414;2022-09-12T06:09:06;8.27;;;2.55;;
61978;SDS011;47938;48.176;16.414;2022-09-12T06:11:32;4.55;;;2.60;;
61978;SDS011;47938;48.176;16.414;2022-09-12T06:13:59;7.07;;;3.38;;
61978;SDS011;47938;48.176;16.414;2022-09-12T06:16:26;6.22;;;2.92;;
61978;SDS011;47938;48.176;16.414;2022-09-12T06:18:54;7.43;;;2.63;;
61978;SDS011;47938;48.176;16.414;2022-09-12T06:21:25;4.93;;;3.00;;
61978;SDS011;47938;48.176;16.414;2022-09-12T06:23:52;6.78;;;3.13;;
61978;SDS011;47938;48.176;16.414;2022-09-12T06:26:21;6.07;;;2.88;;
61978;SDS011;47938;48.176;16.414;2022-09-12T06:28:47;5.28;;;2.63;;
61978;SDS011;47938;48.176;16.414;2022-09-12T06:31:15;5.05;;;2.92;;
61978;SDS011;47938;48.176;16.414;2022-09-12T06:33:44;8.15;;;3.55;;
61978;SDS011;47938;48.176;16.414;2022-09-12T06:36:12;5.97;;;2.95;;
61978;SDS011;47938;48.176;16.414;2022-09-12T06:38:40;4.45;;;2.80;;
61978;SDS011;47938;48.176;16.414;2022-09-12T06:41:06;8.50;;;2.83;;
61978;SDS011;47938;48.176;16.414;2022-09-12T06:43:33;8.70;;;3.05;;
61978;SDS011;47938;48.176;16.414;2022-09-12T06:46:00;4.85;;;2.90;;
61978;SDS011;47938;48.176;16.414;2022-09-12T06:48:26;5.47;;;3.22;;
61978;SDS011;47938;48.176;16.414;2022-09-12T06:50:59;6.25;;;3.47;;
61978;SDS011;47938;48.176;16.414;2022-09-12T06:53:27;5.13;;;3.30;;
61978;SDS011;47938;48.176;16.414;2022-09-12T06:55:54;7.47;;;3.22;;
61978;SDS011;47938;48.176;16.414;2022-09-12T06:58:28;5.90;;;2.83;;
61978;SDS011;47938;48.176;16.414;2022-09-12T07:01:01;6.18;;;3.10;;
61978;SDS011;47938;48.176;16.414;2022-09-12T07:03:32;7.55;;;3.25;;
61978;SDS011;47938;48.176;16.414;2022-09-12T07:06:05;6.35;;;3.47;;
61978;SDS011;47938;48.176;16.414;2022-09-12T07:08:35;5.47;;;3.20;;
61978;SDS011;47938;48.176;16.414;2022-09-12T07:13:45;5.45;;;3.15;;
61978;SDS011;47938;48.176;16.414;2022-09-12T07:16:13;9.13;;;3.58;;
61978;SDS011;47938;48.176;16.414;2022-09-12T07:18:40;3.83;;;2.88;;
61978;SDS011;47938;48.176;16.414;2022-09-12T07:21:06;8.70;;;3.17;;
61978;SDS011;47938;48.176;16.414;2022-09-12T07:23:35;7.10;;;3.42;;
61978;SDS011;47938;48.176;16.414;2022-09-12T07:26:03;4.47;;;2.72;;
61978;SDS011;47938;48.176;16.414;2022-09-12T07:28:29;5.60;;;3.45;;
61978;SDS011;47938;48.176;16.414;2022-09-12T07:30:56;8.27;;;3.22;;
61978;SDS011;47938;48.176;16.414;2022-09-12T07:33:22;10.18;;;3.90;;
61978;SDS011;47938;48.176;16.414;2022-09-12T07:35:51;6.25;;;3.30;;
61978;SDS011;47938;48.176;16.414;2022-09-12T07:38:16;6.47;;;3.47;;
61978;SDS011;47938;48.176;16.414;2022-09-12T07:40:42;4.65;;;3.50;;
61978;SDS011;47938;48.176;16.414;2022-09-12T07:43:07;7.82;;;3.55;;
61978;SDS011;47938;48.176;16.414;2022-09-12T07:45:33;5.10;;;3.95;;
61978;SDS011;47938;48.176;16.414;2022-09-12T07:47:59;8.52;;;3.40;;
61978;SDS011;47938;48.176;16.414;2022-09-12T07:50:24;6.18;;;3.72;;
61978;SDS011;47938;48.176;16.414;2022-09-12T07:52:52;11.32;;;4.05;;
61978;SDS011;47938;48.176;16.414;2022-09-12T07:55:18;5.13;;;4.15;;
61978;SDS011;47938;48.176;16.414;2022-09-12T07:57:44;5.97;;;3.45;;
61978;SDS011;47938;48.176;16.414;2022-09-12T08:00:12;8.00;;;4.10;;
61978;SDS011;47938;48.176;16.414;2022-09-12T08:02:38;7.97;;;4.35;;
61978;SDS011;47938;48.176;16.414;2022-09-12T08:05:04;9.90;;;3.38;;
61978;SDS011;47938;48.176;16.414;2022-09-12T08:07:30;8.60;;;3.30;;
61978;SDS011;47938;48.176;16.414;2022-09-12T08:09:55;4.32;;;3.60;;
61978;SDS011;47938;48.176;16.414;2022-09-12T08:12:21;4.60;;;3.17;;
61978;SDS011;47938;48.176;16.414;2022-09-12T08:14:46;5.22;;;3.30;;
61978;SDS011;47938;48.176;16.414;2022-09-12T08:17:12;3.88;;;3.10;;
61978;SDS011;47938;48.176;16.414;2022-09-12T08:19:38;6.13;;;3.28;;
61978;SDS011;47938;48.176;16.414;2022-09-12T08:22:03;5.90;;;2.85;;
61978;SDS011;47938;48.176;16.414;2022-09-12T08:24:29;4.18;;;3.15;;
61978;SDS011;47938;48.176;16.414;2022-09-12T08:26:55;5.63;;;3.50;;
61978;SDS011;47938;48.176;16.414;2022-09-12T08:29:20;6.20;;;3.20;;
61978;SDS011;47938;48.176;16.414;2022-09-12T08:31:46;7.28;;;3.38;;
61978;SDS011;47938;48.176;16.414;2022-09-12T08:34:11;6.78;;;3.33;;
61978;SDS011;47938;48.176;16.414;2022-09-12T08:36:37;6.47;;;3.22;;
61978;SDS011;47938;48.176;16.414;2022-09-12T08:39:04;5.00;;;3.15;;
61978;SDS011;47938;48.176;16.414;2022-09-12T08:48:59;13.88;;;3.28;;
61978;SDS011;47938;48.176;16.414;2022-09-12T08:51:28;4.63;;;3.70;;
61978;SDS011;47938;48.176;16.414;2022-09-12T08:53:56;4.47;;;2.75;;
61978;SDS011;47938;48.176;16.414;2022-09-12T08:56:23;9.45;;;3.55;;
61978;SDS011;47938;48.176;16.414;2022-09-12T08:58:51;5.30;;;2.97;;
61978;SDS011;47938;48.176;16.414;2022-09-12T09:09:12;7.47;;;2.72;;
61978;SDS011;47938;48.176;16.414;2022-09-12T09:14:59;3.95;;;2.42;;
61978;SDS011;47938;48.176;16.414;2022-09-12T09:22:47;4.83;;;2.30;;
61978;SDS011;47938;48.176;16.414;2022-09-12T09:25:22;5.53;;;2.70;;
61978;SDS011;47938;48.176;16.414;2022-09-12T09:27:59;4.95;;;2.50;;
61978;SDS011;47938;48.176;16.414;2022-09-12T09:30:28;6.32;;;3.00;;
61978;SDS011;47938;48.176;16.414;2022-09-12T09:32:56;3.38;;;2.30;;
61978;SDS011;47938;48.176;16.414;2022-09-12T09:44:01;5.88;;;2.72;;
61978;SDS011;47938;48.176;16.414;2022-09-12T09:46:27;4.95;;;2.72;;
61978;SDS011;47938;48.176;16.414;2022-09-12T09:48:53;6.07;;;2.53;;
61978;SDS011;47938;48.176;16.414;2022-09-12T09:51:23;3.10;;;2.10;;
61978;SDS011;47938;48.176;16.414;2022-09-12T09:53:57;3.92;;;2.58;;
61978;SDS011;47938;48.176;16.414;2022-09-12T09:56:41;4.13;;;2.45;;
61978;SDS011;47938;48.176;16.414;2022-09-12T10:01:59;5.38;;;2.38;;
61978;SDS011;47938;48.176;16.414;2022-09-12T10:04:38;3.45;;;2.13;;
61978;SDS011;47938;48.176;16.414;2022-09-12T10:07:05;5.18;;;2.30;;
61978;SDS011;47938;48.176;16.414;2022-09-12T10:09:41;3.45;;;2.40;;
61978;SDS011;47938;48.176;16.414;2022-09-12T10:15:15;4.38;;;2.97;;
61978;SDS011;47938;48.176;16.414;2022-09-12T10:17:51;4.43;;;1.92;;
61978;SDS011;47938;48.176;16.414;2022-09-12T10:25:59;2.40;;;1.77;;
61978;SDS011;47938;48.176;16.414;2022-09-12T10:28:31;4.00;;;2.28;;
61978;SDS011;47938;48.176;16.414;2022-09-12T10:30:59;3.95;;;2.50;;
61978;SDS011;47938;48.176;16.414;2022-09-12T10:33:24;7.15;;;3.78;;
61978;SDS011;47938;48.176;16.414;2022-09-12T10:35:51;7.85;;;3.90;;
61978;SDS011;47938;48.176;16.414;2022-09-12T10:41:00;4.75;;;2.58;;
61978;SDS011;47938;48.176;16.414;2022-09-12T10:43:37;4.70;;;2.28;;
61978;SDS011;47938;48.176;16.414;2022-09-12T10:48:38;3.60;;;2.58;;
61978;SDS011;47938;48.176;16.414;2022-09-12T10:51:04;6.53;;;2.58;;
61978;SDS011;47938;48.176;16.414;2022-09-12T10:53:45;4.13;;;2.45;;
61978;SDS011;47938;48.176;16.414;2022-09-12T10:58:58;5.40;;;2.20;;
61978;SDS011;47938;48.176;16.414;2022-09-12T11:09:59;3.35;;;2.40;;
61978;SDS011;47938;48.176;16.414;2022-09-12T11:13:19;15.80;;;3.10;;
61978;SDS011;47938;48.176;16.414;2022-09-12T11:15:43;6.05;;;2.67;;
61978;SDS011;47938;48.176;16.414;2022-09-12T11:26:52;7.00;;;2.63;;
61978;SDS011;47938;48.176;16.414;2022-09-12T11:38:13;5.40;;;2.85;;
61978;SDS011;47938;48.176;16.414;2022-09-12T11:41:02;3.22;;;1.77;;
61978;SDS011;47938;48.176;16.414;2022-09-12T11:46:10;2.88;;;2.00;;
61978;SDS011;47938;48.176;16.414;2022-09-12T11:51:19;3.60;;;1.75;;
61978;SDS011;47938;48.176;16.414;2022-09-12T11:56:38;5.78;;;2.83;;
61978;SDS011;47938;48.176;16.414;2022-09-12T12:01:38;5.18;;;2.15;;
61978;SDS011;47938;48.176;16.414;2022-09-12T12:04:10;4.65;;;1.95;;
61978;SDS011;47938;48.176;16.414;2022-09-12T12:06:48;3.50;;;1.80;;
61978;SDS011;47938;48.176;16.414;2022-09-12T12:09:25;5.85;;;2.30;;
61978;SDS011;47938;48.176;16.414;2022-09-12T12:11:52;3.45;;;2.10;;
61978;SDS011;47938;48.176;16.414;2022-09-12T12:14:32;7.45;;;2.80;;
61978;SDS011;47938;48.176;16.414;2022-09-12T12:17:11;5.13;;;2.42;;
61978;SDS011;47938;48.176;16.414;2022-09-12T12:19:42;5.05;;;1.92;;
61978;SDS011;47938;48.176;16.414;2022-09-12T12:22:14;4.25;;;2.30;;
61978;SDS011;47938;48.176;16.414;2022-09-12T12:24:53;4.22;;;2.05;;
61978;SDS011;47938;48.176;16.414;2022-09-12T12:27:22;7.03;;;2.38;;
61978;SDS011;47938;48.176;16.414;2022-09-12T12:32:59;4.75;;;2.42;;
61978;SDS011;47938;48.176;16.414;2022-09-12T12:38:01;4.10;;;2.35;;
61978;SDS011;47938;48.176;16.414;2022-09-12T12:40:28;3.50;;;2.10;;
61978;SDS011;47938;48.176;16.414;2022-09-12T12:47:58;4.10;;;2.00;;
61978;SDS011;47938;48.176;16.414;2022-09-12T12:50:32;4.97;;;2.30;;
61978;SDS011;47938;48.176;16.414;2022-09-12T12:53:05;3.38;;;1.67;;
61978;SDS011;47938;48.176;16.414;2022-09-12T12:58:06;4.22;;;2.15;;
61978;SDS011;47938;48.176;16.414;2022-09-12T13:03:45;3.05;;;1.80;;
61978;SDS011;47938;48.176;16.414;2022-09-12T13:06:31;7.93;;;2.67;;
61978;SDS011;47938;48.176;16.414;2022-09-12T13:11:43;3.20;;;2.05;;
61978;SDS011;47938;48.176;16.414;2022-09-12T13:17:06;2.25;;;1.30;;
61978;SDS011;47938;48.176;16.414;2022-09-12T13:19:39;2.95;;;1.92;;
61978;SDS011;47938;48.176;16.414;2022-09-12T13:22:06;4.00;;;2.30;;
61978;SDS011;47938;48.176;16.414;2022-09-12T13:24:34;4.70;;;2.38;;
61978;SDS011;47938;48.176;16.414;2022-09-12T13:27:20;4.30;;;2.08;;
61978;SDS011;47938;48.176;16.414;2022-09-12T13:29:47;7.70;;;2.00;;
61978;SDS011;47938;48.176;16.414;2022-09-12T13:32:14;3.88;;;1.80;;
61978;SDS011;47938;48.176;16.414;2022-09-12T13:37:17;3.60;;;1.40;;
61978;SDS011;47938;48.176;16.414;2022-09-12T13:45:24;4.32;;;2.10;;
61978;SDS011;47938;48.176;16.414;2022-09-12T13:47:51;5.80;;;1.80;;
61978;SDS011;47938;48.176;16.414;2022-09-12T13:50:24;5.55;;;2.28;;
61978;SDS011;47938;48.176;16.414;2022-09-12T13:53:26;3.85;;;1.63;;
61978;SDS011;47938;48.176;16.414;2022-09-12T13:55:51;8.00;;;2.10;;
61978;SDS011;47938;48.176;16.414;2022-09-12T13:58:22;5.18;;;2.28;;
61978;SDS011;47938;48.176;16.414;2022-09-12T14:03:32;4.03;;;2.00;;
61978;SDS011;47938;48.176;16.414;2022-09-12T14:06:02;7.30;;;2.10;;
61978;SDS011;47938;48.176;16.414;2022-09-12T14:08:28;3.13;;;1.60;;
61978;SDS011;47938;48.176;16.414;2022-09-12T14:10:55;7.43;;;2.30;;
61978;SDS011;47938;48.176;16.414;2022-09-12T14:13:23;2.60;;;1.98;;
61978;SDS011;47938;48.176;16.414;2022-09-12T14:15:50;5.82;;;1.95;;
61978;SDS011;47938;48.176;16.414;2022-09-12T14:20:53;4.68;;;1.90;;
61978;SDS011;47938;48.176;16.414;2022-09-12T14:23:28;7.03;;;2.15;;
61978;SDS011;47938;48.176;16.414;2022-09-12T14:25:55;3.38;;;1.70;;
61978;SDS011;47938;48.176;16.414;2022-09-12T14:28:22;3.42;;;1.73;;
61978;SDS011;47938;48.176;16.414;2022-09-12T14:31:27;5.95;;;1.90;;
61978;SDS011;47938;48.176;16.414;2022-09-12T14:33:53;5.10;;;2.22;;
61978;SDS011;47938;48.176;16.414;2022-09-12T14:36:22;4.47;;;2.00;;
61978;SDS011;47938;48.176;16.414;2022-09-12T14:39:03;3.05;;;1.50;;
61978;SDS011;47938;48.176;16.414;2022-09-12T14:41:35;3.28;;;1.73;;
61978;SDS011;47938;48.176;16.414;2022-09-12T14:44:05;2.30;;;1.65;;
61978;SDS011;47938;48.176;16.414;2022-09-12T14:46:34;3.03;;;1.98;;
61978;SDS011;47938;48.176;16.414;2022-09-12T14:49:08;4.47;;;2.38;;
61978;SDS011;47938;48.176;16.414;2022-09-12T14:51:37;2.72;;;1.70;;
61978;SDS011;47938;48.176;16.414;2022-09-12T14:54:24;4.80;;;2.85;;
61978;SDS011;47938;48.176;16.414;2022-09-12T14:56:53;3.15;;;2.00;;
61978;SDS011;47938;48.176;16.414;2022-09-12T14:59:29;4.20;;;1.90;;
61978;SDS011;47938;48.176;16.414;2022-09-12T15:02:17;2.78;;;1.60;;
61978;SDS011;47938;48.176;16.414;2022-09-12T15:04:44;5.75;;;2.00;;
61978;SDS011;47938;48.176;16.414;2022-09-12T15:07:28;5.82;;;1.70;;
61978;SDS011;47938;48.176;16.414;2022-09-12T15:10:04;4.35;;;1.63;;
61978;SDS011;47938;48.176;16.414;2022-09-12T15:12:41;2.60;;;1.50;;
61978;SDS011;47938;48.176;16.414;2022-09-12T15:15:17;2.70;;;1.27;;
61978;SDS011;47938;48.176;16.414;2022-09-12T15:17:44;5.28;;;1.60;;
61978;SDS011;47938;48.176;16.414;2022-09-12T15:20:10;4.75;;;1.65;;
61978;SDS011;47938;48.176;16.414;2022-09-12T15:22:37;2.97;;;1.67;;
61978;SDS011;47938;48.176;16.414;2022-09-12T15:25:05;3.78;;;1.50;;
61978;SDS011;47938;48.176;16.414;2022-09-12T15:27:31;7.05;;;1.40;;
61978;SDS011;47938;48.176;16.414;2022-09-12T15:29:57;3.47;;;1.48;;
61978;SDS011;47938;48.176;16.414;2022-09-12T15:32:23;2.88;;;1.85;;
61978;SDS011;47938;48.176;16.414;2022-09-12T15:34:50;3.85;;;1.42;;
61978;SDS011;47938;48.176;16.414;2022-09-12T15:37:17;3.60;;;1.73;;
61978;SDS011;47938;48.176;16.414;2022-09-12T15:39:44;2.63;;;1.30;;
61978;SDS011;47938;48.176;16.414;2022-09-12T15:42:10;2.90;;;1.23;;
61978;SDS011;47938;48.176;16.414;2022-09-12T15:44:37;3.05;;;1.40;;
61978;SDS011;47938;48.176;16.414;2022-09-12T15:47:03;3.60;;;1.52;;
61978;SDS011;47938;48.176;16.414;2022-09-12T15:49:29;3.50;;;1.52;;
61978;SDS011;47938;48.176;16.414;2022-09-12T15:51:54;6.38;;;1.70;;
61978;SDS011;47938;48.176;16.414;2022-09-12T15:54:20;2.20;;;1.40;;
61978;SDS011;47938;48.176;16.414;2022-09-12T15:56:45;3.05;;;1.40;;
61978;SDS011;47938;48.176;16.414;2022-09-12T15:59:11;4.00;;;1.73;;
61978;SDS011;47938;48.176;16.414;2022-09-12T16:01:37;4.35;;;2.35;;
61978;SDS011;47938;48.176;16.414;2022-09-12T16:04:02;2.55;;;1.52;;
61978;SDS011;47938;48.176;16.414;2022-09-12T16:06:28;3.90;;;1.63;;
61978;SDS011;47938;48.176;16.414;2022-09-12T16:08:53;3.53;;;1.80;;
61978;SDS011;47938;48.176;16.414;2022-09-12T16:11:23;3.35;;;1.95;;
61978;SDS011;47938;48.176;16.414;2022-09-12T16:13:52;3.42;;;2.10;;
61978;SDS011;47938;48.176;16.414;2022-09-12T16:16:19;5.25;;;1.45;;
61978;SDS011;47938;48.176;16.414;2022-09-12T16:18:45;3.60;;;1.80;;
61978;SDS011;47938;48.176;16.414;2022-09-12T16:21:10;6.85;;;2.22;;
61978;SDS011;47938;48.176;16.414;2022-09-12T16:23:36;3.30;;;1.90;;
61978;SDS011;47938;48.176;16.414;2022-09-12T16:26:02;4.20;;;1.70;;
61978;SDS011;47938;48.176;16.414;2022-09-12T16:28:29;3.75;;;2.17;;
61978;SDS011;47938;48.176;16.414;2022-09-12T16:30:56;3.53;;;2.20;;
61978;SDS011;47938;48.176;16.414;2022-09-12T16:33:23;8.20;;;2.30;;
61978;SDS011;47938;48.176;16.414;2022-09-12T16:35:50;8.07;;;3.05;;
61978;SDS011;47938;48.176;16.414;2022-09-12T16:38:22;5.32;;;3.40;;
61978;SDS011;47938;48.176;16.414;2022-09-12T16:40:47;2.72;;;1.75;;
61978;SDS011;47938;48.176;16.414;2022-09-12T16:43:13;3.67;;;1.75;;
61978;SDS011;47938;48.176;16.414;2022-09-12T16:45:39;3.17;;;1.70;;
61978;SDS011;47938;48.176;16.414;2022-09-12T16:48:04;5.60;;;2.20;;
61978;SDS011;47938;48.176;16.414;2022-09-12T16:50:30;3.67;;;2.40;;
61978;SDS011;47938;48.176;16.414;2022-09-12T16:52:55;3.78;;;2.35;;
61978;SDS011;47938;48.176;16.414;2022-09-12T16:55:23;3.92;;;2.33;;
61978;SDS011;47938;48.176;16.414;2022-09-12T16:57:48;3.50;;;2.03;;
61978;SDS011;47938;48.176;16.414;2022-09-12T17:00:14;4.57;;;2.65;;
61978;SDS011;47938;48.176;16.414;2022-09-12T17:02:39;4.03;;;2.40;;
61978;SDS011;47938;48.176;16.414;2022-09-12T17:05:05;5.18;;;2.00;;
61978;SDS011;47938;48.176;16.414;2022-09-12T17:07:31;4.32;;;2.70;;
61978;SDS011;47938;48.176;16.414;2022-09-12T17:09:57;3.15;;;2.33;;
61978;SDS011;47938;48.176;16.414;2022-09-12T17:12:22;5.88;;;2.60;;
61978;SDS011;47938;48.176;16.414;2022-09-12T17:14:48;3.42;;;2.30;;
61978;SDS011;47938;48.176;16.414;2022-09-12T17:17:13;4.80;;;2.30;;
61978;SDS011;47938;48.176;16.414;2022-09-12T17:19:39;3.17;;;2.20;;
61978;SDS011;47938;48.176;16.414;2022-09-12T17:22:05;8.18;;;2.40;;
61978;SDS011;47938;48.176;16.414;2022-09-12T17:24:30;3.65;;;2.55;;
61978;SDS011;47938;48.176;16.414;2022-09-12T17:26:56;3.83;;;2.17;;
61978;SDS011;47938;48.176;16.414;2022-09-12T17:29:21;4.22;;;3.13;;
61978;SDS011;47938;48.176;16.414;2022-09-12T17:31:47;5.28;;;2.83;;
61978;SDS011;47938;48.176;16.414;2022-09-12T17:34:13;11.73;;;2.40;;
61978;SDS011;47938;48.176;16.414;2022-09-12T17:36:39;3.55;;;2.42;;
61978;SDS011;47938;48.176;16.414;2022-09-12T17:39:05;4.55;;;2.63;;